sensor_id;sensor_type;location;lat;lon;timestamp;pressure;altitude;pressure_sealevel;temperature;humidity
71770;BME280;66386;52.122;5.420;2023-06-05T00:01:59;102471.38;;;12.55;73.02
71770;BME280;66386;52.122;5.420;2023-06-05T00:04:25;102473.19;;;12.51;72.59
71770;BME280;66386;52.122;5.420;2023-06-05T00:06:52;102475.81;;;12.47;72.92
71770;BME280;66386;52.122;5.420;2023-06-05T00:09:18;102469.88;;;12.43;72.92
71770;BME280;66386;52.122;5.420;2023-06-05T00:11:45;102469.88;;;12.43;72.83
71770;BME280;66386;52.122;5.420;2023-06-05T00:14:11;102474.19;;;12.43;73.06
71770;BME280;66386;52.122;5.420;2023-06-05T00:16:38;102470.00;;;12.37;73.16
71770;BME280;66386;52.122;5.420;2023-06-05T00:19:05;102474.44;;;12.29;73.30
71770;BME280;66386;52.122;5.420;2023-06-05T00:21:31;102471.88;;;12.27;73.80
71770;BME280;66386;52.122;5.420;2023-06-05T00:23:58;102467.66;;;12.23;73.91
71770;BME280;66386;52.122;5.420;2023-06-05T00:26:24;102458.22;;;12.22;73.82
71770;BME280;66386;52.122;5.420;2023-06-05T00:28:51;102466.78;;;12.24;73.76
71770;BME280;66386;52.122;5.420;2023-06-05T00:31:18;102463.34;;;12.23;73.87
71770;BME280;66386;52.122;5.420;2023-06-05T00:33:48;102464.34;;;12.18;74.31
71770;BME280;66386;52.122;5.420;2023-06-05T00:36:15;102467.91;;;12.09;74.25
71770;BME280;66386;52.122;5.420;2023-06-05T00:38:41;102456.81;;;12.04;74.63
71770;BME280;66386;52.122;5.420;2023-06-05T00:41:08;102469.69;;;12.05;74.82
71770;BME280;66386;52.122;5.420;2023-06-05T00:43:35;102461.22;;;11.99;74.94
71770;BME280;66386;52.122;5.420;2023-06-05T00:46:03;102471.56;;;11.97;75.02
71770;BME280;66386;52.122;5.420;2023-06-05T00:48:31;102467.31;;;11.92;75.68
71770;BME280;66386;52.122;5.420;2023-06-05T00:50:59;102469.97;;;11.85;75.77
71770;BME280;66386;52.122;5.420;2023-06-05T00:53:25;102476.09;;;11.78;75.71
71770;BME280;66386;52.122;5.420;2023-06-05T00:55:53;102477.03;;;11.74;75.72
71770;BME280;66386;52.122;5.420;2023-06-05T00:58:20;102469.34;;;11.73;75.91
71770;BME280;66386;52.122;5.420;2023-06-05T01:00:46;102470.16;;;11.73;75.87
71770;BME280;66386;52.122;5.420;2023-06-05T01:03:15;102462.50;;;11.70;75.99
71770;BME280;66386;52.122;5.420;2023-06-05T01:05:43;102467.66;;;11.68;76.25
71770;BME280;66386;52.122;5.420;2023-06-05T01:08:10;102470.28;;;11.65;76.53
71770;BME280;66386;52.122;5.420;2023-06-05T01:10:38;102472.91;;;11.64;76.40
71770;BME280;66386;52.122;5.420;2023-06-05T01:13:12;102478.06;;;11.62;76.42
71770;BME280;66386;52.122;5.420;2023-06-05T01:15:42;102466.13;;;11.57;76.59
71770;BME280;66386;52.122;5.420;2023-06-05T01:18:09;102466.16;;;11.55;76.62
71770;BME280;66386;52.122;5.420;2023-06-05T01:20:38;102458.44;;;11.52;76.87
71770;BME280;66386;52.122;5.420;2023-06-05T01:23:06;102463.63;;;11.50;76.81
71770;BME280;66386;52.122;5.420;2023-06-05T01:25:33;102459.38;;;11.49;76.88
71770;BME280;66386;52.122;5.420;2023-06-05T01:28:14;102459.41;;;11.46;76.78
71770;BME280;66386;52.122;5.420;2023-06-05T01:31:01;102453.41;;;11.46;76.91
71770;BME280;66386;52.122;5.420;2023-06-05T01:33:36;102451.72;;;11.45;77.05
71770;BME280;66386;52.122;5.420;2023-06-05T01:36:13;102452.63;;;11.41;76.94
71770;BME280;66386;52.122;5.420;2023-06-05T01:38:41;102450.09;;;11.38;77.30
71770;BME280;66386;52.122;5.420;2023-06-05T01:41:10;102445.00;;;11.33;77.17
71770;BME280;66386;52.122;5.420;2023-06-05T01:43:37;102442.50;;;11.27;77.19
71770;BME280;66386;52.122;5.420;2023-06-05T01:46:07;102441.75;;;11.22;77.74
71770;BME280;66386;52.122;5.420;2023-06-05T01:48:35;102443.44;;;11.21;77.65
71770;BME280;66386;52.122;5.420;2023-06-05T01:51:05;102440.03;;;11.21;77.45
71770;BME280;66386;52.122;5.420;2023-06-05T01:53:32;102443.53;;;11.15;77.81
71770;BME280;66386;52.122;5.420;2023-06-05T01:55:58;102445.28;;;11.14;78.09
71770;BME280;66386;52.122;5.420;2023-06-05T01:58:27;102444.44;;;11.11;77.92
71770;BME280;66386;52.122;5.420;2023-06-05T02:00:54;102442.78;;;11.08;78.20
71770;BME280;66386;52.122;5.420;2023-06-05T02:03:23;102440.25;;;11.04;78.27
71770;BME280;66386;52.122;5.420;2023-06-05T02:05:50;102436.84;;;11.03;78.21
71770;BME280;66386;52.122;5.420;2023-06-05T02:08:20;102440.28;;;11.00;78.20
71770;BME280;66386;52.122;5.420;2023-06-05T02:10:49;102441.19;;;10.96;78.37
71770;BME280;66386;52.122;5.420;2023-06-05T02:13:16;102436.06;;;10.95;78.65
71770;BME280;66386;52.122;5.420;2023-06-05T02:15:45;102441.25;;;10.92;78.68
71770;BME280;66386;52.122;5.420;2023-06-05T02:18:12;102432.75;;;10.88;78.73
71770;BME280;66386;52.122;5.420;2023-06-05T02:20:40;102433.63;;;10.86;79.09
71770;BME280;66386;52.122;5.420;2023-06-05T02:23:07;102432.81;;;10.83;78.77
71770;BME280;66386;52.122;5.420;2023-06-05T02:25:33;102431.13;;;10.81;79.09
71770;BME280;66386;52.122;5.420;2023-06-05T02:28:00;102431.16;;;10.78;79.10
71770;BME280;66386;52.122;5.420;2023-06-05T02:30:26;102432.00;;;10.77;79.31
71770;BME280;66386;52.122;5.420;2023-06-05T02:32:53;102425.19;;;10.73;79.26
71770;BME280;66386;52.122;5.420;2023-06-05T02:35:27;102420.09;;;10.70;79.28
71770;BME280;66386;52.122;5.420;2023-06-05T02:37:56;102426.13;;;10.67;79.37
71770;BME280;66386;52.122;5.420;2023-06-05T02:40:23;102424.41;;;10.68;79.33
71770;BME280;66386;52.122;5.420;2023-06-05T02:42:49;102425.28;;;10.67;79.56
71770;BME280;66386;52.122;5.420;2023-06-05T02:45:16;102414.16;;;10.63;79.42
71770;BME280;66386;52.122;5.420;2023-06-05T02:47:43;102425.41;;;10.56;79.73
71770;BME280;66386;52.122;5.420;2023-06-05T02:50:09;102428.00;;;10.53;79.73
71770;BME280;66386;52.122;5.420;2023-06-05T02:52:36;102427.16;;;10.52;79.90
71770;BME280;66386;52.122;5.420;2023-06-05T02:55:05;102424.63;;;10.49;79.90
71770;BME280;66386;52.122;5.420;2023-06-05T02:57:34;102418.69;;;10.45;80.24
71770;BME280;66386;52.122;5.420;2023-06-05T03:00:09;102421.22;;;10.44;79.89
71770;BME280;66386;52.122;5.420;2023-06-05T03:02:40;102418.66;;;10.44;80.41
71770;BME280;66386;52.122;5.420;2023-06-05T03:05:08;102415.31;;;10.37;80.49
71770;BME280;66386;52.122;5.420;2023-06-05T03:07:35;102415.31;;;10.37;80.27
71770;BME280;66386;52.122;5.420;2023-06-05T03:10:02;102411.91;;;10.35;80.48
71770;BME280;66386;52.122;5.420;2023-06-05T03:12:29;102409.34;;;10.32;80.36
71770;BME280;66386;52.122;5.420;2023-06-05T03:14:56;102421.38;;;10.30;80.53
71770;BME280;66386;52.122;5.420;2023-06-05T03:17:22;102408.59;;;10.24;80.63
71770;BME280;66386;52.122;5.420;2023-06-05T03:19:50;102407.75;;;10.20;80.93
71770;BME280;66386;52.122;5.420;2023-06-05T03:22:17;102404.31;;;10.21;80.92
71770;BME280;66386;52.122;5.420;2023-06-05T03:24:45;102407.75;;;10.20;81.08
71770;BME280;66386;52.122;5.420;2023-06-05T03:27:11;102406.06;;;10.18;81.00
71770;BME280;66386;52.122;5.420;2023-06-05T03:29:39;102403.47;;;10.18;80.87
71770;BME280;66386;52.122;5.420;2023-06-05T03:32:05;102398.34;;;10.18;80.96
71770;BME280;66386;52.122;5.420;2023-06-05T03:34:32;102411.22;;;10.16;81.07
71770;BME280;66386;52.122;5.420;2023-06-05T03:36:58;102400.09;;;10.14;81.26
71770;BME280;66386;52.122;5.420;2023-06-05T03:39:25;102402.66;;;10.16;81.16
71770;BME280;66386;52.122;5.420;2023-06-05T03:41:52;102402.66;;;10.16;81.17
71770;BME280;66386;52.122;5.420;2023-06-05T03:44:19;102396.69;;;10.13;81.00
71770;BME280;66386;52.122;5.420;2023-06-05T03:46:46;102404.41;;;10.13;81.08
71770;BME280;66386;52.122;5.420;2023-06-05T03:49:13;102400.09;;;10.16;81.13
71770;BME280;66386;52.122;5.420;2023-06-05T03:51:39;102401.81;;;10.17;80.94
71770;BME280;66386;52.122;5.420;2023-06-05T03:54:08;102404.38;;;10.15;80.92
71770;BME280;66386;52.122;5.420;2023-06-05T03:56:35;102410.38;;;10.16;81.15
71770;BME280;66386;52.122;5.420;2023-06-05T03:59:05;102406.97;;;10.15;81.11
71770;BME280;66386;52.122;5.420;2023-06-05T04:01:45;102400.09;;;10.14;81.26
71770;BME280;66386;52.122;5.420;2023-06-05T04:04:12;102408.66;;;10.14;81.04
71770;BME280;66386;52.122;5.420;2023-06-05T04:06:39;102405.22;;;10.16;81.11
71770;BME280;66386;52.122;5.420;2023-06-05T04:09:07;102418.03;;;10.19;81.20
71770;BME280;66386;52.122;5.420;2023-06-05T04:11:42;102412.88;;;10.20;81.15
71770;BME280;66386;52.122;5.420;2023-06-05T04:14:09;102417.16;;;10.21;81.02
71770;BME280;66386;52.122;5.420;2023-06-05T04:16:37;102415.41;;;10.23;81.07
71770;BME280;66386;52.122;5.420;2023-06-05T04:19:12;102418.03;;;10.20;81.12
71770;BME280;66386;52.122;5.420;2023-06-05T04:21:38;102416.28;;;10.24;80.96
71770;BME280;66386;52.122;5.420;2023-06-05T04:24:06;102416.25;;;10.28;80.73
71770;BME280;66386;52.122;5.420;2023-06-05T04:26:40;102413.63;;;10.33;80.70
71770;BME280;66386;52.122;5.420;2023-06-05T04:29:10;102412.78;;;10.33;80.78
71770;BME280;66386;52.122;5.420;2023-06-05T04:31:41;102410.22;;;10.31;80.96
71770;BME280;66386;52.122;5.420;2023-06-05T04:34:08;102411.06;;;10.35;81.04
71770;BME280;66386;52.122;5.420;2023-06-05T04:36:35;102414.47;;;10.35;80.59
71770;BME280;66386;52.122;5.420;2023-06-05T04:39:04;102424.75;;;10.38;80.70
71770;BME280;66386;52.122;5.420;2023-06-05T04:41:31;102425.56;;;10.40;80.75
71770;BME280;66386;52.122;5.420;2023-06-05T04:43:59;102429.88;;;10.40;80.73
71770;BME280;66386;52.122;5.420;2023-06-05T04:46:28;102430.69;;;10.42;80.54
71770;BME280;66386;52.122;5.420;2023-06-05T04:48:55;102424.69;;;10.44;80.67
71770;BME280;66386;52.122;5.420;2023-06-05T04:51:24;102433.13;;;10.53;80.64
71770;BME280;66386;52.122;5.420;2023-06-05T04:53:51;102442.50;;;10.58;80.51
71770;BME280;66386;52.122;5.420;2023-06-05T04:56:19;102433.91;;;10.61;80.53
71770;BME280;66386;52.122;5.420;2023-06-05T04:58:49;102426.97;;;10.69;80.24
71770;BME280;66386;52.122;5.420;2023-06-05T05:01:17;102432.88;;;10.76;80.16
71770;BME280;66386;52.122;5.420;2023-06-05T05:03:44;102435.41;;;10.79;80.18
71770;BME280;66386;52.122;5.420;2023-06-05T05:06:15;102441.38;;;10.84;79.93
71770;BME280;66386;52.122;5.420;2023-06-05T05:08:46;102435.25;;;10.93;79.98
71770;BME280;66386;52.122;5.420;2023-06-05T05:11:17;102430.09;;;10.93;79.63
71770;BME280;66386;52.122;5.420;2023-06-05T05:13:44;102440.38;;;10.94;79.71
71770;BME280;66386;52.122;5.420;2023-06-05T05:16:10;102437.75;;;10.97;79.98
71770;BME280;66386;52.122;5.420;2023-06-05T05:18:43;102451.47;;;10.98;79.76
71770;BME280;66386;52.122;5.420;2023-06-05T05:21:09;102440.25;;;11.04;80.04
71770;BME280;66386;52.122;5.420;2023-06-05T05:23:36;102438.44;;;11.12;79.76
71770;BME280;66386;52.122;5.420;2023-06-05T05:26:03;102439.22;;;11.18;79.60
71770;BME280;66386;52.122;5.420;2023-06-05T05:28:31;102436.56;;;11.23;79.52
71770;BME280;66386;52.122;5.420;2023-06-05T05:30:58;102434.78;;;11.27;79.09
71770;BME280;66386;52.122;5.420;2023-06-05T05:33:24;102436.47;;;11.29;79.09
71770;BME280;66386;52.122;5.420;2023-06-05T05:35:51;102445.00;;;11.33;79.18
71770;BME280;66386;52.122;5.420;2023-06-05T05:38:17;102437.22;;;11.38;79.07
71770;BME280;66386;52.122;5.420;2023-06-05T05:40:44;102431.16;;;11.40;79.09
71770;BME280;66386;52.122;5.420;2023-06-05T05:43:10;102422.44;;;11.49;78.91
71770;BME280;66386;52.122;5.420;2023-06-05T05:45:37;102444.63;;;11.58;78.39
71770;BME280;66386;52.122;5.420;2023-06-05T05:48:05;102435.97;;;11.63;78.42
71770;BME280;66386;52.122;5.420;2023-06-05T05:50:32;102439.28;;;11.72;77.99
71770;BME280;66386;52.122;5.420;2023-06-05T05:52:58;102444.31;;;11.79;77.89
71770;BME280;66386;52.122;5.420;2023-06-05T05:55:25;102440.69;;;11.91;77.96
71770;BME280;66386;52.122;5.420;2023-06-05T05:57:52;102431.91;;;12.51;76.93
71770;BME280;66386;52.122;5.420;2023-06-05T06:00:19;102430.16;;;14.07;71.85
71770;BME280;66386;52.122;5.420;2023-06-05T06:02:46;102424.50;;;14.57;69.48
71770;BME280;66386;52.122;5.420;2023-06-05T06:05:13;102439.06;;;14.28;69.28
71770;BME280;66386;52.122;5.420;2023-06-05T06:07:40;102435.91;;;14.49;69.04
71770;BME280;66386;52.122;5.420;2023-06-05T06:10:08;102434.56;;;14.36;68.87
71770;BME280;66386;52.122;5.420;2023-06-05T06:12:35;102438.44;;;14.51;68.92
71770;BME280;66386;52.122;5.420;2023-06-05T06:15:03;102435.25;;;15.59;66.20
71770;BME280;66386;52.122;5.420;2023-06-05T06:17:30;102429.41;;;16.31;63.27
71770;BME280;66386;52.122;5.420;2023-06-05T06:19:57;102424.81;;;17.09;61.08
71770;BME280;66386;52.122;5.420;2023-06-05T06:22:23;102432.75;;;17.28;59.96
71770;BME280;66386;52.122;5.420;2023-06-05T06:24:50;102437.38;;;16.98;59.29
71770;BME280;66386;52.122;5.420;2023-06-05T06:27:18;102440.34;;;16.87;60.17
71770;BME280;66386;52.122;5.420;2023-06-05T06:30:00;102432.97;;;16.76;59.46
71770;BME280;66386;52.122;5.420;2023-06-05T06:32:27;102437.13;;;17.04;58.14
71770;BME280;66386;52.122;5.420;2023-06-05T06:34:55;102439.81;;;17.24;58.67
71770;BME280;66386;52.122;5.420;2023-06-05T06:37:25;102435.75;;;17.39;58.40
71770;BME280;66386;52.122;5.420;2023-06-05T06:39:51;102435.84;;;17.16;58.14
71770;BME280;66386;52.122;5.420;2023-06-05T06:42:18;102445.41;;;17.14;58.99
71770;BME280;66386;52.122;5.420;2023-06-05T06:44:45;102439.38;;;16.91;58.12
71770;BME280;66386;52.122;5.420;2023-06-05T06:47:11;102441.66;;;16.51;59.37
71770;BME280;66386;52.122;5.420;2023-06-05T06:49:38;102438.97;;;16.29;60.96
71770;BME280;66386;52.122;5.420;2023-06-05T06:52:05;102439.97;;;16.74;59.22
71770;BME280;66386;52.122;5.420;2023-06-05T06:54:32;102437.00;;;16.83;59.04
71770;BME280;66386;52.122;5.420;2023-06-05T06:56:59;102444.28;;;16.50;58.76
71770;BME280;66386;52.122;5.420;2023-06-05T06:59:25;102439.25;;;16.21;60.68
71770;BME280;66386;52.122;5.420;2023-06-05T07:02:09;102443.56;;;16.70;60.95
71770;BME280;66386;52.122;5.420;2023-06-05T07:04:37;102442.25;;;17.05;59.20
71770;BME280;66386;52.122;5.420;2023-06-05T07:07:04;102444.03;;;17.27;59.10
71770;BME280;66386;52.122;5.420;2023-06-05T07:09:31;102450.44;;;17.40;58.26
71770;BME280;66386;52.122;5.420;2023-06-05T07:11:57;102440.28;;;17.34;58.39
71770;BME280;66386;52.122;5.420;2023-06-05T07:14:25;102447.38;;;17.08;57.61
71770;BME280;66386;52.122;5.420;2023-06-05T07:16:51;102447.06;;;16.94;57.98
71770;BME280;66386;52.122;5.420;2023-06-05T07:19:22;102445.81;;;16.79;58.60
71770;BME280;66386;52.122;5.420;2023-06-05T07:21:49;102450.66;;;16.90;58.78
71770;BME280;66386;52.122;5.420;2023-06-05T07:24:15;102443.91;;;16.84;58.81
71770;BME280;66386;52.122;5.420;2023-06-05T07:26:44;102447.69;;;16.99;58.25
71770;BME280;66386;52.122;5.420;2023-06-05T07:29:11;102451.06;;;17.25;58.77
71770;BME280;66386;52.122;5.420;2023-06-05T07:31:38;102444.22;;;17.22;58.15
71770;BME280;66386;52.122;5.420;2023-06-05T07:34:05;102444.72;;;17.32;57.34
71770;BME280;66386;52.122;5.420;2023-06-05T07:36:31;102443.56;;;17.39;57.38
71770;BME280;66386;52.122;5.420;2023-06-05T07:38:59;102449.09;;;17.30;56.94
71770;BME280;66386;52.122;5.420;2023-06-05T07:41:26;102449.72;;;17.37;58.15
71770;BME280;66386;52.122;5.420;2023-06-05T07:43:52;102450.03;;;17.51;57.71
71770;BME280;66386;52.122;5.420;2023-06-05T07:46:19;102451.69;;;17.74;56.31
71770;BME280;66386;52.122;5.420;2023-06-05T07:48:45;102444.41;;;18.03;55.14
71770;BME280;66386;52.122;5.420;2023-06-05T07:51:12;102440.69;;;17.88;55.93
71770;BME280;66386;52.122;5.420;2023-06-05T07:53:38;102446.13;;;18.04;55.99
71770;BME280;66386;52.122;5.420;2023-06-05T07:56:06;102437.53;;;18.02;55.26
71770;BME280;66386;52.122;5.420;2023-06-05T07:58:32;102449.00;;;17.98;54.29
71770;BME280;66386;52.122;5.420;2023-06-05T08:00:58;102443.34;;;17.66;55.36
71770;BME280;66386;52.122;5.420;2023-06-05T08:03:25;102434.63;;;17.67;54.92
71770;BME280;66386;52.122;5.420;2023-06-05T08:05:52;102449.75;;;17.57;55.16
71770;BME280;66386;52.122;5.420;2023-06-05T08:08:19;102440.69;;;17.88;54.78
71770;BME280;66386;52.122;5.420;2023-06-05T08:10:45;102444.81;;;17.94;54.59
71770;BME280;66386;52.122;5.420;2023-06-05T08:13:12;102446.84;;;18.87;52.77
71770;BME280;66386;52.122;5.420;2023-06-05T08:15:38;102438.22;;;19.04;51.69
71770;BME280;66386;52.122;5.420;2023-06-05T08:18:05;102445.97;;;19.06;51.62
71770;BME280;66386;52.122;5.420;2023-06-05T08:20:31;102439.97;;;18.84;52.47
71770;BME280;66386;52.122;5.420;2023-06-05T08:22:58;102439.69;;;19.10;52.51
71770;BME280;66386;52.122;5.420;2023-06-05T08:25:24;102434.97;;;19.18;51.98
71770;BME280;66386;52.122;5.420;2023-06-05T08:27:51;102441.66;;;19.41;51.90
71770;BME280;66386;52.122;5.420;2023-06-05T08:30:19;102439.47;;;19.68;51.30
71770;BME280;66386;52.122;5.420;2023-06-05T08:32:45;102431.13;;;19.79;49.59
71770;BME280;66386;52.122;5.420;2023-06-05T08:35:12;102441.94;;;19.71;50.82
71770;BME280;66386;52.122;5.420;2023-06-05T08:37:39;102429.63;;;19.56;49.26
71770;BME280;66386;52.122;5.420;2023-06-05T08:40:07;102426.59;;;19.48;50.23
71770;BME280;66386;52.122;5.420;2023-06-05T08:42:35;102421.22;;;19.51;50.23
71770;BME280;66386;52.122;5.420;2023-06-05T08:45:01;102426.94;;;19.58;49.89
71770;BME280;66386;52.122;5.420;2023-06-05T08:47:29;102425.25;;;19.74;49.63
71770;BME280;66386;52.122;5.420;2023-06-05T08:50:05;102417.38;;;19.76;49.02
71770;BME280;66386;52.122;5.420;2023-06-05T08:52:38;102424.34;;;19.75;49.28
71770;BME280;66386;52.122;5.420;2023-06-05T08:55:08;102414.66;;;19.79;48.66
71770;BME280;66386;52.122;5.420;2023-06-05T08:57:40;102412.03;;;19.79;49.97
71770;BME280;66386;52.122;5.420;2023-06-05T09:00:08;102412.69;;;19.82;49.06
71770;BME280;66386;52.122;5.420;2023-06-05T09:02:38;102408.38;;;19.99;49.02
71770;BME280;66386;52.122;5.420;2023-06-05T09:05:07;102410.53;;;20.08;48.50
71770;BME280;66386;52.122;5.420;2023-06-05T09:07:34;102415.41;;;20.14;47.62
71770;BME280;66386;52.122;5.420;2023-06-05T09:10:04;102414.25;;;19.86;49.21
71770;BME280;66386;52.122;5.420;2023-06-05T09:12:31;102415.63;;;20.27;49.35
71770;BME280;66386;52.122;5.420;2023-06-05T09:14:57;102411.34;;;20.42;48.16
71770;BME280;66386;52.122;5.420;2023-06-05T09:17:24;102409.56;;;20.43;47.82
71770;BME280;66386;52.122;5.420;2023-06-05T09:19:51;102404.34;;;20.58;47.72
71770;BME280;66386;52.122;5.420;2023-06-05T09:22:32;102404.06;;;20.81;47.60
71770;BME280;66386;52.122;5.420;2023-06-05T09:24:59;102401.44;;;20.49;46.81
71770;BME280;66386;52.122;5.420;2023-06-05T09:27:27;102407.84;;;20.59;47.39
71770;BME280;66386;52.122;5.420;2023-06-05T09:30:02;102401.22;;;20.69;47.11
71770;BME280;66386;52.122;5.420;2023-06-05T09:32:30;102405.00;;;20.96;46.50
71770;BME280;66386;52.122;5.420;2023-06-05T09:34:57;102412.31;;;21.05;46.68
71770;BME280;66386;52.122;5.420;2023-06-05T09:37:34;102399.03;;;21.24;47.30
71770;BME280;66386;52.122;5.420;2023-06-05T09:40:04;102398.16;;;21.39;45.56
71770;BME280;66386;52.122;5.420;2023-06-05T09:42:32;102402.59;;;21.53;45.95
71770;BME280;66386;52.122;5.420;2023-06-05T09:45:00;102402.09;;;21.47;45.31
71770;BME280;66386;52.122;5.420;2023-06-05T09:47:27;102393.66;;;21.41;44.65
71770;BME280;66386;52.122;5.420;2023-06-05T09:50:04;102392.47;;;21.47;44.67
71770;BME280;66386;52.122;5.420;2023-06-05T09:52:33;102398.50;;;21.64;44.34
71770;BME280;66386;52.122;5.420;2023-06-05T09:55:02;102386.91;;;21.53;45.41
71770;BME280;66386;52.122;5.420;2023-06-05T09:57:31;102388.53;;;21.70;43.77
71770;BME280;66386;52.122;5.420;2023-06-05T10:00:02;102383.81;;;21.61;44.86
71770;BME280;66386;52.122;5.420;2023-06-05T10:02:33;102395.09;;;21.77;44.66
71770;BME280;66386;52.122;5.420;2023-06-05T10:05:03;102381.31;;;21.59;44.99
71770;BME280;66386;52.122;5.420;2023-06-05T10:07:30;102379.38;;;21.77;46.14
71770;BME280;66386;52.122;5.420;2023-06-05T10:09:58;102384.44;;;22.09;44.32
71770;BME280;66386;52.122;5.420;2023-06-05T10:12:25;102381.53;;;22.00;44.77
71770;BME280;66386;52.122;5.420;2023-06-05T10:14:54;102375.19;;;21.89;45.77
71770;BME280;66386;52.122;5.420;2023-06-05T10:17:21;102375.19;;;22.18;44.53
71770;BME280;66386;52.122;5.420;2023-06-05T10:19:48;102375.34;;;22.15;43.66
71770;BME280;66386;52.122;5.420;2023-06-05T10:22:16;102371.25;;;21.96;44.56
71770;BME280;66386;52.122;5.420;2023-06-05T10:24:51;102372.66;;;22.17;44.17
71770;BME280;66386;52.122;5.420;2023-06-05T10:29:55;102365.63;;;22.17;46.01
71770;BME280;66386;52.122;5.420;2023-06-05T10:40:40;102355.88;;;22.48;43.81
71770;BME280;66386;52.122;5.420;2023-06-05T10:45:52;102354.63;;;21.83;44.11
71770;BME280;66386;52.122;5.420;2023-06-05T10:49:11;102352.19;;;21.80;45.38
71770;BME280;66386;52.122;5.420;2023-06-05T10:51:52;102354.22;;;22.18;44.04
71770;BME280;66386;52.122;5.420;2023-06-05T10:59:24;102350.47;;;22.22;43.73
71770;BME280;66386;52.122;5.420;2023-06-05T11:07:25;102340.19;;;22.75;42.44
71770;BME280;66386;52.122;5.420;2023-06-05T11:15:02;102348.31;;;22.29;44.25
71770;BME280;66386;52.122;5.420;2023-06-05T11:17:33;102338.72;;;22.57;44.06
71770;BME280;66386;52.122;5.420;2023-06-05T11:20:04;102334.91;;;22.48;43.55
71770;BME280;66386;52.122;5.420;2023-06-05T11:22:32;102332.50;;;22.45;44.48
71770;BME280;66386;52.122;5.420;2023-06-05T11:27:45;102323.56;;;22.62;43.48
71770;BME280;66386;52.122;5.420;2023-06-05T11:30:16;102329.50;;;22.78;42.71
71770;BME280;66386;52.122;5.420;2023-06-05T11:32:56;102332.44;;;22.87;43.04
71770;BME280;66386;52.122;5.420;2023-06-05T11:35:26;102322.75;;;23.01;44.42
71770;BME280;66386;52.122;5.420;2023-06-05T11:38:20;102324.06;;;23.34;43.05
71770;BME280;66386;52.122;5.420;2023-06-05T11:40:51;102313.88;;;23.30;42.33
71770;BME280;66386;52.122;5.420;2023-06-05T11:43:19;102308.94;;;23.25;42.50
71770;BME280;66386;52.122;5.420;2023-06-05T11:45:53;102316.22;;;22.94;43.32
71770;BME280;66386;52.122;5.420;2023-06-05T11:48:20;102317.28;;;23.05;42.25
71770;BME280;66386;52.122;5.420;2023-06-05T11:51:00;102297.34;;;23.02;43.30
71770;BME280;66386;52.122;5.420;2023-06-05T11:53:28;102306.75;;;23.32;42.83
71770;BME280;66386;52.122;5.420;2023-06-05T11:55:56;102315.34;;;23.21;41.97
71770;BME280;66386;52.122;5.420;2023-06-05T11:58:37;102307.16;;;23.26;43.17
71770;BME280;66386;52.122;5.420;2023-06-05T12:01:12;102302.97;;;23.49;42.69
71770;BME280;66386;52.122;5.420;2023-06-05T12:03:41;102309.78;;;23.39;41.90
71770;BME280;66386;52.122;5.420;2023-06-05T12:06:08;102313.78;;;23.31;42.24
71770;BME280;66386;52.122;5.420;2023-06-05T12:08:35;102313.84;;;23.17;42.61
71770;BME280;66386;52.122;5.420;2023-06-05T12:11:03;102300.44;;;23.47;42.62
71770;BME280;66386;52.122;5.420;2023-06-05T12:13:50;102300.66;;;23.70;42.73
71770;BME280;66386;52.122;5.420;2023-06-05T12:16:18;102300.00;;;23.79;42.44
71770;BME280;66386;52.122;5.420;2023-06-05T12:18:45;102308.00;;;23.52;42.89
71770;BME280;66386;52.122;5.420;2023-06-05T12:21:23;102304.34;;;23.55;43.18
71770;BME280;66386;52.122;5.420;2023-06-05T12:23:51;102308.44;;;23.46;42.91
71770;BME280;66386;52.122;5.420;2023-06-05T12:26:17;102302.88;;;23.25;43.93
71770;BME280;66386;52.122;5.420;2023-06-05T12:28:44;102300.75;;;23.17;43.89
71770;BME280;66386;52.122;5.420;2023-06-05T12:31:35;102295.63;;;23.28;44.69
71770;BME280;66386;52.122;5.420;2023-06-05T12:34:03;102300.66;;;23.44;43.94
71770;BME280;66386;52.122;5.420;2023-06-05T12:36:31;102297.50;;;23.52;44.36
71770;BME280;66386;52.122;5.420;2023-06-05T12:39:03;102300.22;;;23.50;44.09
71770;BME280;66386;52.122;5.420;2023-06-05T12:41:32;102296.03;;;23.48;43.36
71770;BME280;66386;52.122;5.420;2023-06-05T12:44:03;102296.06;;;23.35;43.58
71770;BME280;66386;52.122;5.420;2023-06-05T12:46:35;102296.97;;;23.21;44.52
71770;BME280;66386;52.122;5.420;2023-06-05T12:49:03;102294.13;;;23.11;44.18
71770;BME280;66386;52.122;5.420;2023-06-05T12:51:31;102293.28;;;23.11;44.38
71770;BME280;66386;52.122;5.420;2023-06-05T12:53:58;102288.06;;;23.11;44.77
71770;BME280;66386;52.122;5.420;2023-06-05T12:56:25;102285.31;;;23.12;44.95
71770;BME280;66386;52.122;5.420;2023-06-05T12:58:54;102287.88;;;22.99;44.70
71770;BME280;66386;52.122;5.420;2023-06-05T13:01:22;102292.47;;;22.83;45.08
71770;BME280;66386;52.122;5.420;2023-06-05T13:03:50;102279.19;;;22.59;45.77
71770;BME280;66386;52.122;5.420;2023-06-05T13:06:17;102285.78;;;22.52;46.00
71770;BME280;66386;52.122;5.420;2023-06-05T13:08:44;102287.41;;;22.40;46.32
71770;BME280;66386;52.122;5.420;2023-06-05T13:11:12;102281.09;;;22.57;46.09
71770;BME280;66386;52.122;5.420;2023-06-05T13:13:38;102278.50;;;22.70;46.07
71770;BME280;66386;52.122;5.420;2023-06-05T13:16:05;102274.75;;;22.87;45.58
71770;BME280;66386;52.122;5.420;2023-06-05T13:18:34;102268.94;;;22.69;46.43
71770;BME280;66386;52.122;5.420;2023-06-05T13:21:03;102272.75;;;22.50;46.05
71770;BME280;66386;52.122;5.420;2023-06-05T13:23:30;102258.47;;;22.41;46.50
71770;BME280;66386;52.122;5.420;2023-06-05T13:25:57;102255.03;;;22.41;46.60
71770;BME280;66386;52.122;5.420;2023-06-05T13:28:24;102252.00;;;22.34;47.61
71770;BME280;66386;52.122;5.420;2023-06-05T13:30:50;102248.81;;;22.56;47.30